TimeMST,TemperatureF,Dew PointF,Humidity,Sea Level PressureIn,VisibilityMPH,Wind Direction,Wind SpeedMPH,Gust SpeedMPH,PrecipitationIn,Events,Conditions,WindDirDegrees,DateUTC
12:55 AM,12.0,10.0,92,30.33,10.0,Calm,Calm,-,N/A,,Overcast,0,2013-01-13 07:55:00
1:55 AM,12.0,9.0,88,30.34,10.0,Calm,Calm,-,N/A,,Overcast,0,2013-01-13 08:55:00
2:55 AM,10.9,8.1,88,30.35,10.0,Calm,Calm,-,N/A,,Overcast,0,2013-01-13 09:55:00
3:55 AM,10.0,7.0,87,30.36,6.0,Calm,Calm,-,0.00,,Overcast,0,2013-01-13 10:55:00
4:55 AM,7.0,5.0,92,30.38,7.0,Calm,Calm,-,N/A,,Overcast,0,2013-01-13 11:55:00
5:55 AM,7.0,5.0,92,30.40,10.0,Calm,Calm,-,0.00,,Scattered Clouds,0,2013-01-13 12:55:00
6:55 AM,5.0,3.0,92,30.42,10.0,West,4.6,-,N/A,,Scattered Clouds,260,2013-01-13 13:55:00
7:55 AM,7.0,3.9,87,30.43,10.0,Calm,Calm,-,N/A,,Overcast,0,2013-01-13 14:55:00
8:55 AM,8.1,5.0,87,30.46,10.0,Calm,Calm,-,N/A,,Overcast,0,2013-01-13 15:55:00
9:55 AM,10.9,7.0,84,30.45,10.0,Calm,Calm,-,N/A,,Overcast,0,2013-01-13 16:55:00
10:55 AM,14.0,10.0,84,30.45,10.0,Calm,Calm,-,N/A,,Overcast,0,2013-01-13 17:55:00
11:55 AM,16.0,10.0,77,30.43,10.0,Calm,Calm,-,N/A,,Overcast,0,2013-01-13 18:55:00
12:55 PM,18.0,10.0,71,30.40,10.0,Calm,Calm,-,N/A,,Mostly Cloudy,0,2013-01-13 19:55:00
1:55 PM,19.0,10.0,68,30.39,10.0,Variable,3.5,-,N/A,,Overcast,0,2013-01-13 20:55:00
2:55 PM,19.0,10.0,68,30.39,10.0,Calm,Calm,-,N/A,,Overcast,0,2013-01-13 21:55:00
3:55 PM,18.0,10.0,71,30.40,10.0,West,3.5,-,N/A,,Overcast,280,2013-01-13 22:55:00
4:55 PM,18.0,10.0,71,30.40,10.0,Calm,Calm,-,N/A,,Overcast,0,2013-01-13 23:55:00
5:55 PM,17.1,10.9,77,30.40,10.0,Calm,Calm,-,N/A,,Overcast,0,2013-01-14 00:55:00
6:55 PM,17.1,12.0,81,30.41,10.0,Calm,Calm,-,N/A,,Overcast,0,2013-01-14 01:55:00
7:55 PM,17.1,10.9,77,30.41,10.0,Calm,Calm,-,N/A,,Overcast,0,2013-01-14 02:55:00
8:55 PM,17.1,12.0,81,30.40,10.0,Calm,Calm,-,N/A,,Overcast,0,2013-01-14 03:55:00
9:55 PM,17.6,12.2,79,30.24,10.0,Calm,Calm,-,N/A,,Overcast,0,2013-01-14 04:55:00
10:55 PM,17.1,12.9,84,30.39,10.0,Calm,Calm,-,0.00,,Overcast,0,2013-01-14 05:55:00
11:55 PM,17.1,14.0,88,30.38,9.0,Calm,Calm,-,N/A,,Overcast,0,2013-01-14 06:55:00